sensor_id;sensor_type;location;lat;lon;timestamp;temperature;humidity
36790;DHT22;22740;52.182;8.780;2022-12-13T00:05:32;-5.20;99.90
36790;DHT22;22740;52.182;8.780;2022-12-13T00:11:34;-5.20;99.90
36790;DHT22;22740;52.182;8.780;2022-12-13T00:17:36;-5.20;99.90
36790;DHT22;22740;52.182;8.780;2022-12-13T00:23:38;-5.20;99.90
36790;DHT22;22740;52.182;8.780;2022-12-13T00:29:40;-5.30;99.90
36790;DHT22;22740;52.182;8.780;2022-12-13T00:35:41;-5.40;99.90
36790;DHT22;22740;52.182;8.780;2022-12-13T00:41:43;-5.50;99.90
36790;DHT22;22740;52.182;8.780;2022-12-13T00:47:45;-5.50;99.90
36790;DHT22;22740;52.182;8.780;2022-12-13T00:53:47;-5.50;99.90
36790;DHT22;22740;52.182;8.780;2022-12-13T00:59:49;-5.50;99.90
36790;DHT22;22740;52.182;8.780;2022-12-13T01:05:50;-5.50;99.90
36790;DHT22;22740;52.182;8.780;2022-12-13T01:12:12;-5.50;99.90
36790;DHT22;22740;52.182;8.780;2022-12-13T01:18:14;-5.50;99.90
36790;DHT22;22740;52.182;8.780;2022-12-13T01:24:19;-5.60;99.90
36790;DHT22;22740;52.182;8.780;2022-12-13T01:30:23;-5.60;99.90
36790;DHT22;22740;52.182;8.780;2022-12-13T01:36:25;-5.50;99.90
36790;DHT22;22740;52.182;8.780;2022-12-13T01:42:28;-5.50;99.90
36790;DHT22;22740;52.182;8.780;2022-12-13T01:48:31;-5.70;99.90
36790;DHT22;22740;52.182;8.780;2022-12-13T01:54:35;-5.80;99.90
36790;DHT22;22740;52.182;8.780;2022-12-13T02:00:47;-5.80;99.90
36790;DHT22;22740;52.182;8.780;2022-12-13T02:06:49;-5.80;99.90
36790;DHT22;22740;52.182;8.780;2022-12-13T02:12:50;-5.90;99.90
36790;DHT22;22740;52.182;8.780;2022-12-13T02:31:09;-5.90;99.90
36790;DHT22;22740;52.182;8.780;2022-12-13T02:43:19;-6.00;99.90
36790;DHT22;22740;52.182;8.780;2022-12-13T02:49:23;-6.10;99.90
36790;DHT22;22740;52.182;8.780;2022-12-13T02:55:27;-6.10;99.90
36790;DHT22;22740;52.182;8.780;2022-12-13T03:01:48;-6.00;99.90
36790;DHT22;22740;52.182;8.780;2022-12-13T03:07:55;-5.90;99.90
36790;DHT22;22740;52.182;8.780;2022-12-13T03:14:02;-6.00;99.90
36790;DHT22;22740;52.182;8.780;2022-12-13T03:20:06;-6.10;99.90
36790;DHT22;22740;52.182;8.780;2022-12-13T03:26:24;-6.10;99.90
36790;DHT22;22740;52.182;8.780;2022-12-13T03:32:27;-6.10;99.90
36790;DHT22;22740;52.182;8.780;2022-12-13T03:38:28;-6.30;99.90
36790;DHT22;22740;52.182;8.780;2022-12-13T03:44:30;-6.20;99.90
36790;DHT22;22740;52.182;8.780;2022-12-13T03:50:32;-6.20;99.90
36790;DHT22;22740;52.182;8.780;2022-12-13T03:56:34;-6.10;99.90
36790;DHT22;22740;52.182;8.780;2022-12-13T04:02:35;-5.90;99.90
36790;DHT22;22740;52.182;8.780;2022-12-13T04:08:37;-5.90;99.90
36790;DHT22;22740;52.182;8.780;2022-12-13T04:14:39;-5.90;99.90
36790;DHT22;22740;52.182;8.780;2022-12-13T04:20:41;-6.10;99.90
36790;DHT22;22740;52.182;8.780;2022-12-13T04:26:43;-6.10;99.90
36790;DHT22;22740;52.182;8.780;2022-12-13T04:32:44;-6.00;99.90
36790;DHT22;22740;52.182;8.780;2022-12-13T04:38:46;-6.00;99.90
36790;DHT22;22740;52.182;8.780;2022-12-13T04:44:48;-6.20;99.90
36790;DHT22;22740;52.182;8.780;2022-12-13T04:50:50;-6.40;99.90
36790;DHT22;22740;52.182;8.780;2022-12-13T04:56:52;-6.40;99.90
36790;DHT22;22740;52.182;8.780;2022-12-13T05:02:53;-6.30;99.90
36790;DHT22;22740;52.182;8.780;2022-12-13T05:08:55;-6.20;99.90
36790;DHT22;22740;52.182;8.780;2022-12-13T05:15:01;-6.20;99.90
36790;DHT22;22740;52.182;8.780;2022-12-13T05:21:03;-6.40;99.90
36790;DHT22;22740;52.182;8.780;2022-12-13T05:27:05;-6.40;99.90
36790;DHT22;22740;52.182;8.780;2022-12-13T05:33:26;-6.30;99.90
36790;DHT22;22740;52.182;8.780;2022-12-13T05:39:28;-6.50;99.90
36790;DHT22;22740;52.182;8.780;2022-12-13T05:45:31;-6.50;99.90
36790;DHT22;22740;52.182;8.780;2022-12-13T05:51:33;-6.50;99.90
36790;DHT22;22740;52.182;8.780;2022-12-13T05:57:35;-6.20;99.90
36790;DHT22;22740;52.182;8.780;2022-12-13T06:03:37;-6.50;99.90
36790;DHT22;22740;52.182;8.780;2022-12-13T06:09:39;-6.40;99.90
36790;DHT22;22740;52.182;8.780;2022-12-13T06:15:41;-6.30;99.90
36790;DHT22;22740;52.182;8.780;2022-12-13T06:21:45;-6.10;99.90
36790;DHT22;22740;52.182;8.780;2022-12-13T06:27:47;-6.40;99.90
36790;DHT22;22740;52.182;8.780;2022-12-13T06:33:48;-6.40;99.90
36790;DHT22;22740;52.182;8.780;2022-12-13T06:39:50;-6.10;99.90
36790;DHT22;22740;52.182;8.780;2022-12-13T06:45:52;-6.50;99.90
36790;DHT22;22740;52.182;8.780;2022-12-13T06:51:54;-6.80;99.90
36790;DHT22;22740;52.182;8.780;2022-12-13T06:57:56;-6.90;99.90
36790;DHT22;22740;52.182;8.780;2022-12-13T07:03:58;-6.80;99.90
36790;DHT22;22740;52.182;8.780;2022-12-13T07:10:00;-6.80;99.90
36790;DHT22;22740;52.182;8.780;2022-12-13T07:16:01;-6.50;99.90
36790;DHT22;22740;52.182;8.780;2022-12-13T07:22:06;-6.50;99.90
36790;DHT22;22740;52.182;8.780;2022-12-13T07:28:07;-6.60;99.90
36790;DHT22;22740;52.182;8.780;2022-12-13T07:34:09;-6.90;99.90
36790;DHT22;22740;52.182;8.780;2022-12-13T07:40:16;-6.90;99.90
36790;DHT22;22740;52.182;8.780;2022-12-13T07:46:18;-7.00;99.90
36790;DHT22;22740;52.182;8.780;2022-12-13T07:52:33;-6.70;99.90
36790;DHT22;22740;52.182;8.780;2022-12-13T07:58:35;-6.70;99.90
36790;DHT22;22740;52.182;8.780;2022-12-13T08:04:36;-6.30;99.90
36790;DHT22;22740;52.182;8.780;2022-12-13T08:10:39;-6.50;99.90
36790;DHT22;22740;52.182;8.780;2022-12-13T08:16:40;-6.60;99.90
36790;DHT22;22740;52.182;8.780;2022-12-13T08:22:42;-6.50;99.90
36790;DHT22;22740;52.182;8.780;2022-12-13T08:28:50;-6.40;99.90
36790;DHT22;22740;52.182;8.780;2022-12-13T08:34:51;-5.80;99.90
36790;DHT22;22740;52.182;8.780;2022-12-13T08:40:53;-6.00;99.90
36790;DHT22;22740;52.182;8.780;2022-12-13T08:46:58;-5.60;99.90
36790;DHT22;22740;52.182;8.780;2022-12-13T08:53:00;-5.70;99.90
36790;DHT22;22740;52.182;8.780;2022-12-13T08:59:02;-5.50;99.90
36790;DHT22;22740;52.182;8.780;2022-12-13T09:05:04;-5.40;99.90
36790;DHT22;22740;52.182;8.780;2022-12-13T09:11:06;-5.50;99.90
36790;DHT22;22740;52.182;8.780;2022-12-13T09:17:21;-5.20;99.90
36790;DHT22;22740;52.182;8.780;2022-12-13T09:23:24;-4.90;99.90
36790;DHT22;22740;52.182;8.780;2022-12-13T09:29:26;-4.90;99.90
36790;DHT22;22740;52.182;8.780;2022-12-13T09:35:28;-4.70;99.90
36790;DHT22;22740;52.182;8.780;2022-12-13T09:41:34;-4.70;99.90
36790;DHT22;22740;52.182;8.780;2022-12-13T09:47:42;-4.60;99.90
36790;DHT22;22740;52.182;8.780;2022-12-13T09:53:48;-4.50;99.90
36790;DHT22;22740;52.182;8.780;2022-12-13T09:59:50;-4.50;99.90
36790;DHT22;22740;52.182;8.780;2022-12-13T10:06:17;-4.40;99.90
36790;DHT22;22740;52.182;8.780;2022-12-13T10:12:24;-4.30;99.90
36790;DHT22;22740;52.182;8.780;2022-12-13T10:18:36;-4.20;99.90
36790;DHT22;22740;52.182;8.780;2022-12-13T10:24:58;-4.00;99.90
36790;DHT22;22740;52.182;8.780;2022-12-13T10:31:05;-3.70;99.90
36790;DHT22;22740;52.182;8.780;2022-12-13T10:37:27;-3.30;99.90
36790;DHT22;22740;52.182;8.780;2022-12-13T10:43:29;-3.30;99.90
36790;DHT22;22740;52.182;8.780;2022-12-13T10:49:37;-3.10;99.90
36790;DHT22;22740;52.182;8.780;2022-12-13T10:55:39;-2.80;99.90
36790;DHT22;22740;52.182;8.780;2022-12-13T11:01:41;-2.50;99.90
36790;DHT22;22740;52.182;8.780;2022-12-13T11:07:42;-2.40;99.90
36790;DHT22;22740;52.182;8.780;2022-12-13T11:13:45;-2.20;99.90
36790;DHT22;22740;52.182;8.780;2022-12-13T11:19:48;-2.20;99.90
36790;DHT22;22740;52.182;8.780;2022-12-13T11:25:53;-1.90;99.90
36790;DHT22;22740;52.182;8.780;2022-12-13T11:50:36;-1.20;99.90
36790;DHT22;22740;52.182;8.780;2022-12-13T11:56:40;-1.00;99.90
36790;DHT22;22740;52.182;8.780;2022-12-13T12:02:44;-0.70;99.90
36790;DHT22;22740;52.182;8.780;2022-12-13T12:08:52;-0.60;99.90
36790;DHT22;22740;52.182;8.780;2022-12-13T12:15:01;-0.60;99.90
36790;DHT22;22740;52.182;8.780;2022-12-13T12:21:20;-0.70;99.90
36790;DHT22;22740;52.182;8.780;2022-12-13T12:27:59;-0.90;99.90
36790;DHT22;22740;52.182;8.780;2022-12-13T12:46:28;-1.30;99.90
36790;DHT22;22740;52.182;8.780;2022-12-13T13:05:21;-1.30;99.90
36790;DHT22;22740;52.182;8.780;2022-12-13T13:11:28;-1.20;99.90
36790;DHT22;22740;52.182;8.780;2022-12-13T13:23:31;-1.70;99.90
36790;DHT22;22740;52.182;8.780;2022-12-13T13:29:41;-1.80;99.90
36790;DHT22;22740;52.182;8.780;2022-12-13T13:35:44;-2.00;99.90
36790;DHT22;22740;52.182;8.780;2022-12-13T14:00:43;-2.60;99.90
36790;DHT22;22740;52.182;8.780;2022-12-13T14:13:18;-2.90;99.90
36790;DHT22;22740;52.182;8.780;2022-12-13T14:19:53;-3.10;99.90
36790;DHT22;22740;52.182;8.780;2022-12-13T14:32:23;-3.20;99.90
36790;DHT22;22740;52.182;8.780;2022-12-13T14:38:28;-3.30;99.90
36790;DHT22;22740;52.182;8.780;2022-12-13T14:44:31;-3.40;99.90
36790;DHT22;22740;52.182;8.780;2022-12-13T14:50:36;-3.50;99.90
36790;DHT22;22740;52.182;8.780;2022-12-13T14:56:52;-3.60;99.90
36790;DHT22;22740;52.182;8.780;2022-12-13T15:02:56;-3.70;99.90
36790;DHT22;22740;52.182;8.780;2022-12-13T15:08:58;-3.80;99.90
36790;DHT22;22740;52.182;8.780;2022-12-13T15:15:01;-3.90;99.90
36790;DHT22;22740;52.182;8.780;2022-12-13T15:21:22;-4.00;99.90
36790;DHT22;22740;52.182;8.780;2022-12-13T15:27:24;-4.10;99.90
36790;DHT22;22740;52.182;8.780;2022-12-13T15:33:27;-4.40;99.90
36790;DHT22;22740;52.182;8.780;2022-12-13T15:39:36;-4.50;99.90
36790;DHT22;22740;52.182;8.780;2022-12-13T15:45:39;-4.40;99.90
36790;DHT22;22740;52.182;8.780;2022-12-13T15:58:23;-4.70;99.90
36790;DHT22;22740;52.182;8.780;2022-12-13T16:04:29;-4.80;99.90
36790;DHT22;22740;52.182;8.780;2022-12-13T16:10:31;-4.90;99.90
36790;DHT22;22740;52.182;8.780;2022-12-13T16:16:33;-4.90;99.90
36790;DHT22;22740;52.182;8.780;2022-12-13T16:22:35;-4.90;99.90
36790;DHT22;22740;52.182;8.780;2022-12-13T16:28:37;-5.00;99.90
36790;DHT22;22740;52.182;8.780;2022-12-13T16:34:38;-5.10;99.90
36790;DHT22;22740;52.182;8.780;2022-12-13T16:40:40;-5.10;99.90
36790;DHT22;22740;52.182;8.780;2022-12-13T16:46:42;-5.10;99.90
36790;DHT22;22740;52.182;8.780;2022-12-13T16:53:04;-5.20;99.90
36790;DHT22;22740;52.182;8.780;2022-12-13T16:59:07;-5.30;99.90
36790;DHT22;22740;52.182;8.780;2022-12-13T17:05:09;-5.40;99.90
36790;DHT22;22740;52.182;8.780;2022-12-13T17:11:11;-5.30;99.90
36790;DHT22;22740;52.182;8.780;2022-12-13T17:17:18;-5.50;99.90
36790;DHT22;22740;52.182;8.780;2022-12-13T17:23:20;-5.70;99.90
36790;DHT22;22740;52.182;8.780;2022-12-13T17:29:22;-5.50;99.90
36790;DHT22;22740;52.182;8.780;2022-12-13T17:35:24;-5.50;99.90
36790;DHT22;22740;52.182;8.780;2022-12-13T17:41:27;-5.30;99.90
36790;DHT22;22740;52.182;8.780;2022-12-13T17:47:29;-5.50;99.90
36790;DHT22;22740;52.182;8.780;2022-12-13T17:53:30;-5.60;99.90
36790;DHT22;22740;52.182;8.780;2022-12-13T17:59:32;-5.60;99.90
36790;DHT22;22740;52.182;8.780;2022-12-13T18:05:41;-5.70;99.90
36790;DHT22;22740;52.182;8.780;2022-12-13T18:11:43;-5.60;99.90
36790;DHT22;22740;52.182;8.780;2022-12-13T18:17:45;-5.60;99.90
36790;DHT22;22740;52.182;8.780;2022-12-13T18:24:06;-5.60;99.90
36790;DHT22;22740;52.182;8.780;2022-12-13T18:30:09;-5.60;99.90
36790;DHT22;22740;52.182;8.780;2022-12-13T18:36:11;-5.60;99.90
36790;DHT22;22740;52.182;8.780;2022-12-13T18:42:13;-5.60;99.90
36790;DHT22;22740;52.182;8.780;2022-12-13T18:48:15;-5.60;99.90
36790;DHT22;22740;52.182;8.780;2022-12-13T18:54:16;-5.60;99.90
36790;DHT22;22740;52.182;8.780;2022-12-13T19:00:18;-5.60;99.90
36790;DHT22;22740;52.182;8.780;2022-12-13T19:06:24;-5.60;99.90
36790;DHT22;22740;52.182;8.780;2022-12-13T19:12:25;-5.60;99.90
36790;DHT22;22740;52.182;8.780;2022-12-13T19:18:27;-5.60;99.90
36790;DHT22;22740;52.182;8.780;2022-12-13T19:24:29;-5.60;99.90
36790;DHT22;22740;52.182;8.780;2022-12-13T19:30:31;-5.70;99.90
36790;DHT22;22740;52.182;8.780;2022-12-13T19:36:32;-5.60;99.90
36790;DHT22;22740;52.182;8.780;2022-12-13T19:42:34;-5.60;99.90
36790;DHT22;22740;52.182;8.780;2022-12-13T19:48:36;-5.60;99.90
36790;DHT22;22740;52.182;8.780;2022-12-13T19:54:38;-5.50;99.90
36790;DHT22;22740;52.182;8.780;2022-12-13T20:00:39;-5.50;99.90
36790;DHT22;22740;52.182;8.780;2022-12-13T20:06:41;-5.60;99.90
36790;DHT22;22740;52.182;8.780;2022-12-13T20:12:43;-5.40;99.90
36790;DHT22;22740;52.182;8.780;2022-12-13T20:18:45;-5.50;99.90
36790;DHT22;22740;52.182;8.780;2022-12-13T20:24:46;-5.60;99.90
36790;DHT22;22740;52.182;8.780;2022-12-13T20:30:48;-5.50;99.90
36790;DHT22;22740;52.182;8.780;2022-12-13T20:36:50;-5.60;99.90
36790;DHT22;22740;52.182;8.780;2022-12-13T20:42:52;-5.40;99.90
36790;DHT22;22740;52.182;8.780;2022-12-13T20:48:54;-5.50;99.90
36790;DHT22;22740;52.182;8.780;2022-12-13T20:54:56;-5.50;99.90
36790;DHT22;22740;52.182;8.780;2022-12-13T21:00:58;-5.50;99.90
36790;DHT22;22740;52.182;8.780;2022-12-13T21:06:59;-5.50;99.90
36790;DHT22;22740;52.182;8.780;2022-12-13T21:13:03;-5.50;99.90
36790;DHT22;22740;52.182;8.780;2022-12-13T21:19:04;-5.50;99.90
36790;DHT22;22740;52.182;8.780;2022-12-13T21:25:06;-5.40;99.90
36790;DHT22;22740;52.182;8.780;2022-12-13T21:31:09;-5.40;99.90
36790;DHT22;22740;52.182;8.780;2022-12-13T21:37:11;-5.40;99.90
36790;DHT22;22740;52.182;8.780;2022-12-13T21:43:14;-5.40;99.90
36790;DHT22;22740;52.182;8.780;2022-12-13T21:49:15;-5.30;99.90
36790;DHT22;22740;52.182;8.780;2022-12-13T21:55:17;-5.30;99.90
36790;DHT22;22740;52.182;8.780;2022-12-13T22:01:49;-5.30;99.90
36790;DHT22;22740;52.182;8.780;2022-12-13T22:08:11;-5.30;99.90
36790;DHT22;22740;52.182;8.780;2022-12-13T22:14:13;-5.30;99.90
36790;DHT22;22740;52.182;8.780;2022-12-13T22:20:15;-5.40;99.90
36790;DHT22;22740;52.182;8.780;2022-12-13T22:26:17;-5.40;99.90
36790;DHT22;22740;52.182;8.780;2022-12-13T22:32:18;-5.30;99.90
36790;DHT22;22740;52.182;8.780;2022-12-13T22:38:20;-5.40;99.90
36790;DHT22;22740;52.182;8.780;2022-12-13T22:44:22;-5.40;99.90
36790;DHT22;22740;52.182;8.780;2022-12-13T22:50:23;-5.40;99.90
36790;DHT22;22740;52.182;8.780;2022-12-13T22:56:25;-5.30;99.90
36790;DHT22;22740;52.182;8.780;2022-12-13T23:02:27;-5.40;99.90
36790;DHT22;22740;52.182;8.780;2022-12-13T23:08:29;-5.30;99.90
36790;DHT22;22740;52.182;8.780;2022-12-13T23:14:31;-5.30;99.90
36790;DHT22;22740;52.182;8.780;2022-12-13T23:20:33;-5.30;99.90
36790;DHT22;22740;52.182;8.780;2022-12-13T23:26:35;-5.40;99.90
36790;DHT22;22740;52.182;8.780;2022-12-13T23:32:37;-5.40;99.90
36790;DHT22;22740;52.182;8.780;2022-12-13T23:38:39;-5.50;99.90
36790;DHT22;22740;52.182;8.780;2022-12-13T23:44:41;-5.50;99.90
36790;DHT22;22740;52.182;8.780;2022-12-13T23:50:42;-5.50;99.90
36790;DHT22;22740;52.182;8.780;2022-12-13T23:56:44;-5.60;99.90
